createdAt,value
2023-11-10T00:00:01.319Z,1
2023-11-10T00:05:01.906Z,0
2023-11-10T00:10:01.362Z,1
2023-11-10T00:15:01.764Z,0
2023-11-10T00:20:02.221Z,0
2023-11-10T00:25:01.615Z,0
2023-11-10T00:30:01.987Z,0
2023-11-10T00:35:01.333Z,1
2023-11-10T00:40:01.806Z,0
2023-11-10T00:45:02.165Z,0
2023-11-10T00:50:01.541Z,0
2023-11-10T00:55:01.874Z,0
2023-11-10T01:00:02.279Z,0
2023-11-10T01:05:01.654Z,0
2023-11-10T01:10:02.043Z,0
2023-11-10T01:15:01.411Z,0
2023-11-10T01:20:01.818Z,0
2023-11-10T01:25:02.166Z,0
2023-11-10T01:30:01.500Z,0
2023-11-10T01:35:01.862Z,0
2023-11-10T01:40:02.220Z,0
2023-11-10T01:45:01.576Z,0
2023-11-10T01:50:02.196Z,0
2023-11-10T01:55:01.593Z,0
2023-11-10T02:00:01.986Z,1
2023-11-10T02:05:01.324Z,0
2023-11-10T02:10:01.886Z,0
2023-11-10T02:15:02.245Z,0
2023-11-10T02:20:01.669Z,0
2023-11-10T02:25:02.032Z,0
2023-11-10T02:30:01.384Z,0
2023-11-10T02:35:01.731Z,0
2023-11-10T02:40:02.115Z,0
2023-11-10T02:45:01.473Z,0
2023-11-10T02:50:01.823Z,0
2023-11-10T02:55:02.176Z,0
2023-11-10T03:00:01.584Z,0
2023-11-10T03:05:02.042Z,0
2023-11-10T03:10:01.436Z,0
2023-11-10T03:15:01.817Z,0
2023-11-10T03:20:02.264Z,0
2023-11-10T03:25:01.622Z,0
2023-11-10T03:30:01.987Z,0
2023-11-10T03:35:01.360Z,0
2023-11-10T03:40:01.729Z,0
2023-11-10T03:45:02.060Z,1
2023-11-10T03:50:01.391Z,0
2023-11-10T03:55:01.725Z,0
2023-11-10T04:00:02.200Z,0
2023-11-10T04:05:01.568Z,0
2023-11-10T04:15:02.289Z,0
2023-11-10T04:20:01.711Z,0
2023-11-10T04:25:02.044Z,0
2023-11-10T04:30:01.472Z,0
2023-11-10T04:35:01.881Z,0
2023-11-10T04:40:02.242Z,0
2023-11-10T04:45:01.592Z,0
2023-11-10T04:50:01.971Z,0
2023-11-10T04:55:01.372Z,0
2023-11-10T05:00:01.725Z,0
2023-11-10T05:05:02.095Z,0
2023-11-10T05:10:01.465Z,0
2023-11-10T05:15:01.824Z,0
2023-11-10T05:20:02.299Z,0
2023-11-10T05:25:01.662Z,0
2023-11-10T05:30:01.374Z,0
2023-11-10T05:35:01.718Z,0
2023-11-10T05:40:02.091Z,0
2023-11-10T05:45:01.441Z,0
2023-11-10T05:50:01.799Z,0
2023-11-10T05:55:02.142Z,0
2023-11-10T06:00:01.502Z,0
2023-11-10T06:05:01.915Z,0
2023-11-10T06:10:01.316Z,0
2023-11-10T06:15:01.686Z,1
2023-11-10T06:20:02.097Z,0
2023-11-10T06:25:01.459Z,0
2023-11-10T06:30:01.814Z,1
2023-11-10T06:35:02.168Z,0
2023-11-10T06:40:01.528Z,0
2023-11-10T06:45:01.858Z,0
2023-11-10T06:50:02.185Z,0
2023-11-10T06:55:01.642Z,0
2023-11-10T07:00:02.077Z,0
2023-11-10T07:05:01.434Z,0
2023-11-10T07:10:01.924Z,0
2023-11-10T07:15:01.381Z,0
2023-11-10T07:20:01.825Z,0
2023-11-10T07:25:02.243Z,0
2023-11-10T07:30:01.584Z,0
2023-11-10T07:35:02.953Z,0
2023-11-10T07:40:01.519Z,0
2023-11-10T07:45:01.986Z,0
2023-11-10T07:50:01.331Z,0
2023-11-10T07:55:01.658Z,1
2023-11-10T08:00:02.030Z,0
2023-11-10T08:05:01.481Z,0
2023-11-10T08:10:05.495Z,0
2023-11-10T08:15:01.524Z,0
2023-11-10T08:20:02.036Z,0
2023-11-10T08:25:01.458Z,0
2023-11-10T08:30:01.846Z,0
2023-11-10T08:35:02.206Z,2
2023-11-10T08:40:01.615Z,0
2023-11-10T08:45:02.008Z,1
2023-11-10T08:50:01.367Z,1
2023-11-10T08:55:01.792Z,0
2023-11-10T09:00:02.201Z,0
2023-11-10T09:05:01.603Z,1
2023-11-10T09:10:02.098Z,0
2023-11-10T09:15:01.488Z,0
2023-11-10T09:20:04.870Z,1
2023-11-10T09:25:01.759Z,1
2023-11-10T09:30:02.180Z,0
2023-11-10T09:35:01.531Z,0
2023-11-10T09:40:01.954Z,0
2023-11-10T09:45:01.319Z,0
2023-11-10T09:50:01.672Z,1
2023-11-10T09:55:02.127Z,1
2023-11-10T10:00:01.506Z,0
2023-11-10T10:05:01.943Z,1
2023-11-10T10:10:01.390Z,2
2023-11-10T10:15:01.760Z,1
2023-11-10T10:20:02.206Z,1
2023-11-10T10:25:01.578Z,2
2023-11-10T10:30:01.981Z,1
2023-11-10T10:35:01.372Z,1
2023-11-10T10:40:01.923Z,2
2023-11-10T10:45:01.372Z,1
2023-11-10T10:50:01.706Z,1
2023-11-10T10:55:02.157Z,2
2023-11-10T11:00:01.594Z,1
2023-11-10T11:05:01.975Z,2
2023-11-10T11:10:01.385Z,2
2023-11-10T11:15:01.789Z,2
2023-11-10T11:20:01.677Z,3
2023-11-10T11:25:02.142Z,2
2023-11-10T11:30:01.519Z,2
2023-11-10T11:35:01.851Z,1
2023-11-10T11:40:02.309Z,2
2023-11-10T11:45:01.926Z,1
2023-11-10T11:50:02.212Z,1
2023-11-10T11:55:01.508Z,1
2023-11-10T12:00:01.897Z,2
2023-11-10T12:05:02.231Z,1
2023-11-10T12:10:01.649Z,1
2023-11-10T12:15:02.064Z,2
2023-11-10T12:20:01.581Z,2
2023-11-10T12:25:01.991Z,2
2023-11-10T12:30:01.409Z,1
2023-11-10T12:35:01.863Z,1
2023-11-10T12:40:02.337Z,2
2023-11-10T12:45:01.740Z,1
2023-11-10T12:50:02.077Z,2
2023-11-10T12:55:01.450Z,1
2023-11-10T13:00:01.832Z,2
2023-11-10T13:05:02.221Z,2
2023-11-10T13:10:01.665Z,1
2023-11-10T13:15:02.051Z,1
2023-11-10T13:20:01.524Z,1
2023-11-10T13:25:01.960Z,2
2023-11-10T13:30:01.386Z,1
2023-11-10T13:35:01.754Z,1
2023-11-10T13:40:02.151Z,2
2023-11-10T13:45:01.504Z,2
2023-11-10T13:50:01.893Z,2
2023-11-10T13:55:02.239Z,2
2023-11-10T14:00:01.614Z,2
2023-11-10T14:05:01.965Z,2
2023-11-10T14:10:01.496Z,0
2023-11-10T14:15:01.921Z,2
2023-11-10T14:20:01.332Z,2
2023-11-10T14:25:01.711Z,2
2023-11-10T14:30:02.070Z,1
2023-11-10T14:35:01.420Z,1
2023-11-10T14:40:01.927Z,2
2023-11-10T14:45:01.329Z,1
2023-11-10T14:50:01.685Z,1
2023-11-10T14:55:02.114Z,1
2023-11-10T15:00:01.529Z,1
2023-11-10T15:05:01.920Z,2
2023-11-10T15:10:01.333Z,1
2023-11-10T15:15:01.733Z,1
2023-11-10T15:20:02.283Z,1
2023-11-10T15:25:01.786Z,1
2023-11-10T15:30:02.226Z,1
2023-11-10T15:35:01.557Z,1
2023-11-10T15:40:02.037Z,1
2023-11-10T15:45:01.413Z,0
2023-11-10T15:50:01.816Z,0
2023-11-10T15:55:02.203Z,0
2023-11-10T16:00:01.595Z,0
2023-11-10T16:05:02.223Z,1
2023-11-10T16:10:01.713Z,0
2023-11-10T16:15:02.123Z,1
2023-11-10T16:20:01.561Z,1
2023-11-10T16:25:01.943Z,0
2023-11-10T16:30:01.347Z,0
2023-11-10T16:35:01.693Z,1
2023-11-10T16:40:02.131Z,0
2023-11-10T16:45:01.509Z,0
2023-11-10T16:50:01.874Z,0
2023-11-10T16:55:02.292Z,0
2023-11-10T17:00:01.659Z,0
2023-11-10T17:05:02.000Z,1
2023-11-10T17:10:01.429Z,1
2023-11-10T17:15:01.788Z,1
2023-11-10T17:20:02.209Z,1
2023-11-10T17:25:01.600Z,0
2023-11-10T17:30:01.952Z,0
2023-11-10T17:35:01.325Z,0
2023-11-10T17:40:01.783Z,2
2023-11-10T17:45:02.161Z,0
2023-11-10T17:50:01.493Z,1
2023-11-10T17:55:01.825Z,0
2023-11-10T18:00:02.217Z,1
2023-11-10T18:05:01.702Z,1
2023-11-10T18:10:02.281Z,1
2023-11-10T18:15:01.699Z,2
2023-11-10T18:20:02.123Z,1
2023-11-10T18:25:01.512Z,1
2023-11-10T18:30:02.001Z,1
2023-11-10T18:35:01.358Z,1
2023-11-10T18:40:01.738Z,1
2023-11-10T18:45:02.136Z,1
2023-11-10T18:50:01.534Z,1
2023-11-10T18:55:01.878Z,1
2023-11-10T19:00:02.266Z,3
2023-11-10T19:05:01.744Z,2
2023-11-10T19:10:02.174Z,2
2023-11-10T19:15:01.579Z,3
2023-11-10T19:20:02.022Z,2
2023-11-10T19:25:01.392Z,3
2023-11-10T19:30:01.770Z,3
2023-11-10T19:35:02.177Z,2
2023-11-10T19:40:01.759Z,3
2023-11-10T19:45:02.210Z,3
2023-11-10T19:50:01.566Z,2
2023-11-10T19:55:01.919Z,23
2023-11-10T20:05:01.404Z,2
2023-11-10T20:10:01.793Z,3
2023-11-10T20:15:02.170Z,13
2023-11-10T20:20:01.616Z,61
2023-11-10T20:25:02.142Z,9
2023-11-10T20:30:01.801Z,3
2023-11-10T20:35:02.202Z,10
2023-11-10T20:40:01.608Z,9
2023-11-10T20:45:02.005Z,40
2023-11-10T20:50:01.439Z,46
2023-11-10T20:55:01.935Z,61
2023-11-10T21:00:01.758Z,52
2023-11-10T21:05:02.180Z,24
2023-11-10T21:10:01.549Z,34
2023-11-10T21:15:01.924Z,47
2023-11-10T21:20:01.383Z,6
2023-11-10T21:25:01.785Z,6
2023-11-10T21:30:02.253Z,3
2023-11-10T21:35:01.634Z,26
2023-11-10T21:40:02.027Z,8
2023-11-10T21:45:01.415Z,2
2023-11-10T21:50:01.787Z,8
2023-11-10T21:55:02.160Z,1
2023-11-10T22:00:01.637Z,2
2023-11-10T22:05:02.128Z,1
2023-11-10T22:10:01.525Z,1
2023-11-10T22:15:01.948Z,1
2023-11-10T22:20:01.417Z,11
2023-11-10T22:25:01.755Z,9
2023-11-10T22:30:02.175Z,3
2023-11-10T22:35:01.543Z,2
2023-11-10T22:40:02.004Z,3
2023-11-10T22:45:01.491Z,2
2023-11-10T22:50:01.963Z,5
2023-11-10T22:55:01.396Z,8
2023-11-10T23:00:02.093Z,1
2023-11-10T23:05:02.432Z,14
2023-11-10T23:10:01.860Z,1
2023-11-10T23:15:02.251Z,1
2023-11-10T23:20:01.420Z,4
2023-11-10T23:25:01.763Z,3
2023-11-10T23:30:02.180Z,8
2023-11-10T23:35:01.571Z,7
2023-11-10T23:40:01.946Z,0
2023-11-10T23:45:02.372Z,0
2023-11-10T23:50:01.731Z,1
2023-11-10T23:55:02.061Z,1
